Connexion S'enregistrer

Connexion à votre compte

Identifiant
Mot de passe
Maintenir la connexion active sur ce site

Créer un compte

Pour valider ce formulaire, vous devez remplir tous les champs.
Nom
Identifiant
Mot de passe
Répétez le mot de passe
Adresse e-mail
Répétez l'adresse e-mail

Nous contacter

 Téléphone : +33 (0)4 79 54 41 81

Coordonnées détaillées et accès : cliquez ici

 
LFLB °C
    Ferienhaus Ostsee
[source: ADDS]
METAR
LFLB 272200Z AUTO 09005KT 060V120 CAVOK 23/17 Q1015 =
TAF LFLB 271400Z 2715/2815 36004KT CAVOK BECMG 2718/2720 18005KT PROB40 TEMPO 2715/2724 FEW070TCU PROB40 TEMPO 2803/2809 3000 SHRA SCT040CB BKN050
TAF
TAF LFLB 271400Z 2715/2815 36004KT CAVOK BECMG 2718/2720 18005KT PROB40 TEMPO 2715/2724 FEW070TCU PROB40 TEMPO 2803/2809 3000 SHRA SCT040CB BKN050 =
SR / SS: 04:15 / 19:10 UTC (Lever/Coucher du soleil le 2021-07-28)
JSN Boot template designed by JoomlaShine.com